Time;durP1;ratioP1;P1;durP2;ratioP2;P2;SDS_P1;SDS_P2;PMS_P1;PMS_P2;Temp;Humidity;BMP_temperature;BMP_pressure;BME280_temperature;BME280_humidity;BME280_pressure;Samples;Min_cycle;Max_cycle;Signal;HPM_P1;HPM_P2
2023/07/31 00:00:44;;;;;;;;;;;;;;;26.34;56.94;100756.84;5099935;28;20474;-90
2023/07/31 00:03:11;;;;;;;2.50;2.30;;;;;;;25.98;56.56;100705.50;5092413;28;19934;-89
2023/07/31 00:05:36;;;;;;;2.72;2.15;;;;;;;25.88;56.85;100693.94;5095677;28;20093;-89
2023/07/31 00:08:02;;;;;;;;;;;;;;;26.31;56.89;100762.22;5100903;28;20488;-85
2023/07/31 00:10:28;;;;;;;3.28;2.20;;;;;;;26.12;56.70;100735.69;5108539;28;19916;-89
2023/07/31 00:12:53;;;;;;;;;;;;;;;26.30;57.04;100761.34;5093885;28;20424;-88
2023/07/31 00:15:19;;;;;;;2.92;2.20;;;;;;;26.10;56.77;100732.13;5083641;28;19972;-88
2023/07/31 00:17:44;;;;;;;;;;;;;;;26.29;57.16;100759.59;5100973;28;20548;-89
2023/07/31 00:20:10;;;;;;;2.42;2.17;;;;;;;26.15;56.97;100738.31;5100653;28;19914;-88
2023/07/31 00:22:36;;;;;;;;;;;;;;;26.26;56.93;100756.94;5104373;28;20027;-88
2023/07/31 00:25:02;;;;;;;2.95;2.30;;;;;;;26.09;56.70;100724.09;5086774;28;19984;-90
2023/07/31 00:27:29;;;;;;;2.30;2.10;;;;;;;25.92;57.03;100692.19;5081770;28;20560;-89
2023/07/31 00:29:54;;;;;;;2.50;2.30;;;;;;;25.89;56.76;100682.41;5097441;28;20116;-89
2023/07/31 00:32:21;;;;;;;;;;;;;;;26.29;56.91;100737.25;5094477;28;20051;-89
2023/07/31 00:34:46;;;;;;;2.42;2.22;;;;;;;25.94;56.68;100682.34;5093790;28;19995;-89
2023/07/31 00:37:12;;;;;;;;;;;;;;;26.26;56.78;100735.50;5096083;28;20120;-88
2023/07/31 00:39:38;;;;;;;1.98;1.88;;;;;;;25.99;56.88;100697.47;5095041;28;19912;-89
2023/07/31 00:42:04;;;;;;;2.80;2.20;;;;;;;26.03;56.69;100695.63;5076580;28;20044;-88
2023/07/31 00:44:30;;;;;;;;;;;;;;;26.25;56.98;100733.75;5095524;28;20028;-90
2023/07/31 00:46:56;;;;;;;3.97;2.20;;;;;;;26.00;57.10;100701.88;5093116;28;19912;-89
2023/07/31 00:49:22;;;;;;;2.42;2.20;;;;;;;26.19;56.81;100745.41;5093750;28;20382;-91
2023/07/31 00:51:50;;;;;;;2.92;2.30;;;;;;;26.09;56.91;100732.13;5076576;28;20815;-89
2023/07/31 00:54:17;;;;;;;1.90;1.70;;;;;;;26.16;56.68;100750.81;5092703;28;20493;-90
2023/07/31 00:56:45;;;;;;;2.20;1.88;;;;;;;26.19;56.93;100744.53;5105475;28;20024;-87
2023/07/31 00:59:10;;;;;;;2.28;2.13;;;;;;;25.75;57.12;100670.91;5091827;28;20105;-90
2023/07/31 01:01:36;;;;;;;;;;;;;;;26.22;56.71;100756.97;5092860;28;20075;-88
2023/07/31 01:04:02;;;;;;;2.17;1.98;;;;;;;25.81;56.73;100702.97;5098694;28;19912;-86
2023/07/31 01:06:34;;;;;;;4.20;2.10;;;;;;;26.16;56.95;100742.78;5101137;28;20169;-90
2023/07/31 01:09:15;;;;;;;2.60;1.98;;;;;;;25.98;56.72;100726.91;5099545;28;20077;-89
2023/07/31 01:11:52;;;;;;;2.50;1.95;;;;;;;25.97;56.53;100722.44;5094237;28;20050;-89
2023/07/31 01:14:19;;;;;;;2.55;2.25;;;;;;;26.05;56.91;100736.63;5077976;28;20485;-90
2023/07/31 01:16:45;;;;;;;2.63;2.00;;;;;;;26.13;57.09;100752.63;5094043;28;20115;-88
2023/07/31 01:19:10;;;;;;;;;;;;;;;26.16;57.13;100750.81;5097240;28;20637;-89
2023/07/31 01:21:36;;;;;;;2.45;2.13;;;;;;;26.12;56.94;100745.47;5094938;28;19912;-88
2023/07/31 01:24:02;;;;;;;;;;;;;;;26.13;56.80;100747.25;5097400;28;20032;-88
2023/07/31 01:26:30;;;;;;;2.03;1.92;;;;;;;26.10;56.89;100741.91;5096797;28;19916;-89
2023/07/31 01:29:08;;;;;;;2.63;2.40;;;;;;;25.91;56.86;100699.31;5088588;28;20031;-88
2023/07/31 01:31:36;;;;;;;2.50;2.17;;;;;;;26.00;57.32;100719.75;5106245;28;20028;-90
2023/07/31 01:34:03;;;;;;;2.30;2.10;;;;;;;25.99;57.36;100720.63;5079347;28;20028;-89
2023/07/31 01:36:30;;;;;;;2.35;2.13;;;;;;;25.87;57.10;100713.59;5094191;28;20043;-88
2023/07/31 01:39:00;;;;;;;2.03;1.83;;;;;;;26.09;57.03;100764.25;5089530;28;20408;-90
2023/07/31 01:41:26;;;;;;;2.90;1.98;;;;;;;26.05;56.99;100768.75;5101097;28;20052;-89
2023/07/31 01:43:51;;;;;;;;;;;;;;;26.10;56.89;100779.41;5077899;28;20125;-89
2023/07/31 01:46:17;;;;;;;2.17;1.88;;;;;;;25.97;57.16;100771.50;5093235;28;20495;-88
2023/07/31 01:48:42;;;;;;;;;;;;;;;26.09;56.92;100783.00;5098198;28;20476;-89
2023/07/31 01:51:08;;;;;;;2.25;2.05;;;;;;;25.67;56.92;100713.78;5099144;28;19915;-89
2023/07/31 01:53:33;;;;;;;;;;;;;;;26.09;56.71;100781.19;5108130;28;20034;-88
2023/07/31 01:55:59;;;;;;;1.90;1.80;;;;;;;25.94;56.90;100766.16;5107817;28;20338;-88
2023/07/31 01:58:24;;;;;;;;;;;;;;;26.10;56.69;100784.75;5103635;28;20028;-89
2023/07/31 02:00:50;;;;;;;2.40;2.20;;;;;;;25.98;56.54;100759.88;5079028;28;19965;-88
2023/07/31 02:03:15;;;;;;;;;;;;;;;26.07;56.70;100760.72;5110731;28;20477;-88
2023/07/31 02:05:48;;;;;;;1.90;1.80;;;;;;;25.96;56.78;100736.72;5098902;28;19985;-87
2023/07/31 02:08:14;;;;;;;2.00;1.80;;;;;;;25.96;56.78;100748.31;5101272;28;20547;-89
2023/07/31 02:10:39;;;;;;;;;;;;;;;26.05;56.79;100765.19;5099311;27;20024;-89
2023/07/31 02:13:06;;;;;;;2.00;1.80;;;;;;;25.93;57.21;100763.50;5085762;28;20498;-90
2023/07/31 02:15:32;;;;;;;2.03;1.80;;;;;;;26.01;57.00;100769.66;5103188;28;20089;-90
2023/07/31 02:17:58;;;;;;;;;;;;;;;26.04;57.11;100768.78;5099798;28;20446;-88
2023/07/31 02:20:24;;;;;;;2.13;1.60;;;;;;;25.82;56.97;100742.16;5093484;28;19916;-89
2023/07/31 02:22:51;;;;;;;2.38;2.00;;;;;;;25.87;56.88;100761.75;5104123;28;20034;-90
2023/07/31 02:25:17;;;;;;;2.03;1.90;;;;;;;25.96;57.03;100780.41;5087230;28;20464;-88
2023/07/31 02:27:43;;;;;;;2.97;1.95;;;;;;;25.66;57.09;100717.38;5080135;28;20477;-89
2023/07/31 02:30:09;;;;;;;;;;;;;;;26.05;56.53;100776.78;5108951;28;20085;-87
2023/07/31 02:32:35;;;;;;;2.20;1.80;;;;;;;25.82;56.56;100754.66;5096761;28;19920;-89
2023/07/31 02:35:01;;;;;;;2.00;1.80;;;;;;;25.75;56.69;100740.47;5101682;28;20039;-89
2023/07/31 02:37:28;;;;;;;;;;;;;;;26.05;56.46;100791.94;5090413;28;20405;-90
2023/07/31 02:39:54;;;;;;;2.05;1.77;;;;;;;25.58;56.65;100705.84;5091429;28;19919;-86
2023/07/31 02:42:19;;;;;;;;;;;;;;;26.00;56.94;100776.81;5093237;28;20044;-86
2023/07/31 02:44:45;;;;;;;1.88;1.75;;;;;;;25.71;56.56;100733.34;5091389;28;19912;-89
2023/07/31 02:47:10;;;;;;;;;;;;;;;26.00;56.85;100784.84;5096156;28;20480;-91
2023/07/31 02:49:36;;;;;;;1.98;1.88;;;;;;;25.98;56.91;100783.09;5107353;28;19912;-89
2023/07/31 02:52:04;;;;;;;;;;;;;;;25.99;56.73;100790.19;5102793;28;20424;-87
2023/07/31 02:54:30;;;;;;;1.95;1.80;;;;;;;25.75;56.86;100772.56;5093238;28;19980;-88
2023/07/31 02:56:56;;;;;;;;;;;;;;;25.96;56.68;100806.31;5103740;28;20027;-87
2023/07/31 02:59:22;;;;;;;2.80;1.75;;;;;;;25.78;57.26;100780.53;5096791;28;20016;-89
2023/07/31 03:01:48;;;;;;;;;;;;;;;25.96;56.72;100795.59;5092476;28;20501;-89
2023/07/31 03:04:13;;;;;;;2.05;1.83;;;;;;;25.86;56.35;100777.81;5102690;28;19926;-89
2023/07/31 03:06:39;;;;;;;;;;;;;;;25.97;56.51;100776.88;5099280;28;20066;-90
2023/07/31 03:09:06;;;;;;;2.05;1.50;;;;;;;25.79;56.85;100745.75;5074215;28;19935;-88
2023/07/31 03:11:32;;;;;;;1.98;1.83;;;;;;;25.94;56.52;100767.97;5094878;28;20059;-88
2023/07/31 03:13:57;;;;;;;;;;;;;;;25.96;56.49;100753.66;5100058;28;21180;-87
2023/07/31 03:16:23;;;;;;;1.95;1.73;;;;;;;25.84;56.63;100735.00;5090925;28;20400;-88
2023/07/31 03:18:49;;;;;;;;;;;;;;;25.93;56.63;100755.47;5073066;28;20386;-87
2023/07/31 03:21:15;;;;;;;1.75;1.60;;;;;;;25.90;56.60;100761.75;5072653;28;19916;-85
2023/07/31 03:23:40;;;;;;;;;;;;;;;25.94;56.57;100790.25;5091333;28;20511;-88
2023/07/31 03:26:07;;;;;;;2.30;1.85;;;;;;;25.89;56.71;100785.88;5076592;28;19919;-89
2023/07/31 03:28:33;;;;;;;1.80;1.70;;;;;;;25.66;56.58;100745.91;5110077;28;20058;-89
2023/07/31 03:30:59;;;;;;;;;;;;;;;25.93;56.67;100798.28;5092750;28;20058;-89
2023/07/31 03:33:24;;;;;;;1.92;1.83;;;;;;;25.91;56.90;100789.41;5099576;28;20365;-87
2023/07/31 03:35:50;;;;;;;;;;;;;;;25.91;56.55;100789.41;5075625;28;20952;-89
2023/07/31 03:38:15;;;;;;;1.70;1.60;;;;;;;25.71;56.48;100749.41;5088709;28;19912;-87
2023/07/31 03:40:43;;;;;;;;;;;;;;;25.91;56.25;100784.94;5100466;28;20032;-85
2023/07/31 03:43:09;;;;;;;1.88;1.70;;;;;;;25.89;56.27;100780.50;5095582;28;19931;-82
2023/07/31 03:45:35;;;;;;;;;;;;;;;25.89;56.15;100781.41;5106926;28;20035;-83
2023/07/31 03:48:00;;;;;;;2.00;1.80;;;;;;;25.84;56.21;100772.47;5109033;28;19919;-87
2023/07/31 03:50:26;;;;;;;;;;;;;;;25.90;56.41;100774.25;5093783;28;20028;-86
2023/07/31 03:52:52;;;;;;;1.90;1.70;;;;;;;25.89;56.33;100773.38;5101053;28;20403;-86
2023/07/31 03:55:18;;;;;;;2.25;1.65;;;;;;;25.83;56.41;100773.38;5098274;28;20036;-86
2023/07/31 03:57:43;;;;;;;;;;;;;;;25.88;56.11;100776.00;5076033;28;20101;-85
2023/07/31 04:00:10;;;;;;;1.77;1.67;;;;;;;25.86;56.27;100767.13;5092004;28;19991;-85
2023/07/31 04:02:36;;;;;;;2.03;1.65;;;;;;;25.74;56.39;100754.75;5099329;28;20085;-86
2023/07/31 04:05:01;;;;;;;;;;;;;;;25.88;56.28;100774.22;5101875;28;20028;-85
2023/07/31 04:07:27;;;;;;;2.28;1.75;;;;;;;25.83;56.23;100773.38;5095549;28;19918;-87
2023/07/31 04:09:52;;;;;;;;;;;;;;;25.89;56.42;100775.16;5101063;28;20023;-86
2023/07/31 04:12:18;;;;;;;1.63;1.52;;;;;;;25.78;56.60;100768.06;5096414;28;19916;-87
2023/07/31 04:14:45;;;;;;;;;;;;;;;25.87;56.58;100767.09;5093477;28;20521;-85
2023/07/31 04:17:11;;;;;;;;;;;;;;;25.87;56.33;100771.56;5102233;28;19918;-86
2023/07/31 04:19:37;;;;;;;2.53;1.83;;;;;;;25.75;56.29;100765.41;5111144;28;19907;-87
2023/07/31 04:22:04;;;;;;;1.70;1.60;;;;;;;25.59;56.47;100740.59;5091639;28;20107;-85
2023/07/31 04:24:29;;;;;;;1.80;1.70;;;;;;;25.80;56.68;100778.75;5091831;28;20059;-85
2023/07/31 04:26:55;;;;;;;;;;;;;;;25.84;56.51;100779.63;5096989;28;20099;-85
2023/07/31 04:29:20;;;;;;;1.80;1.70;;;;;;;25.79;56.43;100772.50;5094847;28;20000;-85
2023/07/31 04:31:47;;;;;;;;;;;;;;;25.82;56.60;100776.94;5100527;28;20059;-83
2023/07/31 04:34:13;;;;;;;2.25;2.05;;;;;;;25.80;56.52;100782.34;5091658;28;19908;-84
2023/07/31 04:36:38;;;;;;;;;;;;;;;25.82;56.39;100784.97;5099886;28;20039;-84
2023/07/31 04:39:04;;;;;;;1.63;1.52;;;;;;;25.71;56.52;100769.00;5106185;28;20339;-84
2023/07/31 04:41:29;;;;;;;;;;;;;;;25.80;56.62;100793.03;5096343;28;20845;-86
2023/07/31 04:43:55;;;;;;;2.08;1.85;;;;;;;25.75;56.50;100780.59;5080432;28;20342;-83
2023/07/31 04:46:20;;;;;;;;;;;;;;;25.79;56.39;100796.59;5096090;28;20022;-84
2023/07/31 04:48:46;;;;;;;2.13;1.80;;;;;;;25.68;56.06;100777.06;5114316;27;19908;-83
2023/07/31 04:51:11;;;;;;;2.53;1.60;;;;;;;25.73;56.29;100787.72;5114299;28;20058;-83
2023/07/31 04:53:37;;;;;;;;;;;;;;;25.78;56.13;100794.84;5121491;27;20565;-84
2023/07/31 04:56:03;;;;;;;2.22;1.80;;;;;;;25.59;56.15;100771.81;5122200;27;20396;-84
2023/07/31 04:58:30;;;;;;;;;;;;;;;25.79;56.34;100796.59;5115359;27;20054;-85
2023/07/31 05:00:56;;;;;;;1.70;1.60;;;;;;;25.76;56.39;100790.38;5095918;27;19912;-85
2023/07/31 05:03:21;;;;;;;;;;;;;;;25.78;56.20;100796.59;5101495;28;20083;-84
2023/07/31 05:05:48;;;;;;;2.22;1.52;;;;;;;25.73;56.56;100787.72;5095514;28;19912;-87
2023/07/31 05:08:14;;;;;;;1.92;1.80;;;;;;;25.49;56.25;100754.06;5117710;27;20030;-86
2023/07/31 05:10:39;;;;;;;;;;;;;;;25.79;56.14;100793.03;5117872;27;20404;-86
2023/07/31 05:13:05;;;;;;;2.67;1.77;;;;;;;25.72;56.57;100802.91;5121083;27;19919;-84
2023/07/31 05:15:30;;;;;;;;;;;;;;;25.77;56.49;100803.75;5118827;27;20034;-83
2023/07/31 05:17:56;;;;;;;2.05;1.70;;;;;;;25.68;56.58;100792.25;5101285;27;20406;-84
2023/07/31 05:20:21;;;;;;;;;;;;;;;25.78;56.35;100802.84;5090878;27;20507;-84
2023/07/31 05:22:47;;;;;;;2.45;1.98;;;;;;;25.75;56.41;100805.53;5126089;27;20361;-84
2023/07/31 05:25:12;;;;;;;;;;;;;;;25.78;56.47;100804.63;5117325;27;20473;-86
2023/07/31 05:27:41;;;;;;;1.83;1.70;;;;;;;25.71;56.64;100801.09;5100755;27;20960;-85
2023/07/31 05:30:08;;;;;;;2.85;1.70;;;;;;;25.51;56.15;100769.19;5115566;27;20054;-86
2023/07/31 05:32:33;;;;;;;1.77;1.60;;;;;;;25.49;56.38;100773.66;5124046;27;20062;-86
2023/07/31 05:34:59;;;;;;;;;;;;;;;25.76;56.27;100815.34;5100804;27;20081;-84
2023/07/31 05:37:25;;;;;;;2.85;1.80;;;;;;;25.51;56.40;100779.00;5096167;28;19992;-85
2023/07/31 05:39:51;;;;;;;;;;;;;;;25.71;56.02;100819.84;5120785;27;20030;-84
2023/07/31 05:42:16;;;;;;;1.90;1.50;;;;;;;25.72;56.09;100821.63;5108245;28;19939;-85
2023/07/31 05:44:42;;;;;;;;;;;;;;;25.75;56.15;100821.59;5112823;27;20472;-84
2023/07/31 05:47:07;;;;;;;1.77;1.50;;;;;;;25.63;55.96;100810.97;5122000;27;20039;-83
2023/07/31 05:49:34;;;;;;;;;;;;;;;25.71;56.38;100825.19;5114652;27;20112;-85
2023/07/31 05:52:00;;;;;;;1.77;1.63;;;;;;;25.39;56.17;100770.16;5113379;27;19961;-84
2023/07/31 05:54:25;;;;;;;;;;;;;;;25.73;56.12;100825.19;5116372;27;20119;-83
2023/07/31 05:56:53;;;;;;;2.22;1.48;;;;;;;25.65;56.15;100819.00;5115986;27;19915;-85
2023/07/31 05:59:19;;;;;;;1.60;1.50;;;;;;;25.70;56.14;100836.81;5098823;27;20484;-83
2023/07/31 06:01:44;;;;;;;;;;;;;;;25.72;55.94;100828.78;5107979;27;20029;-84
2023/07/31 06:04:10;;;;;;;1.73;1.63;;;;;;;25.62;56.12;100813.69;5126708;27;19918;-83
2023/07/31 06:06:35;;;;;;;;;;;;;;;25.71;55.96;100833.22;5118407;27;20019;-84
2023/07/31 06:09:01;;;;;;;1.70;1.58;;;;;;;25.69;56.22;100831.44;5128302;27;19908;-85
2023/07/31 06:11:26;;;;;;;;;;;;;;;25.67;56.11;100830.56;5113383;28;20480;-85
2023/07/31 06:13:52;;;;;;;1.73;1.63;;;;;;;25.68;56.15;100827.03;5097368;28;20304;-83
2023/07/31 06:16:17;;;;;;;;;;;;;;;25.71;56.04;100830.53;5096144;28;20084;-83
2023/07/31 06:18:43;;;;;;;1.55;1.45;;;;;;;25.52;56.03;100810.19;5118182;27;19907;-84
2023/07/31 06:21:09;;;;;;;;;;;;;;;25.69;56.12;100837.69;5124898;27;20031;-84
2023/07/31 06:23:36;;;;;;;1.60;1.50;;;;;;;25.66;55.90;100837.72;5111400;27;19914;-84
2023/07/31 06:26:02;;;;;;;1.77;1.67;;;;;;;25.62;56.33;100832.41;5114280;27;20123;-84
2023/07/31 06:28:31;;;;;;;;;;;;;;;25.65;56.08;100837.72;5094637;28;20551;-84
2023/07/31 06:31:00;;;;;;;1.90;1.80;;;;;;;25.66;56.33;100842.19;5077178;28;19951;-84
2023/07/31 06:33:26;;;;;;;1.60;1.50;;;;;;;25.67;56.34;100835.94;5097351;28;20024;-83
2023/07/31 06:35:52;;;;;;;1.70;1.60;;;;;;;25.66;56.17;100837.72;5113961;28;20027;-86
2023/07/31 06:38:21;;;;;;;;;;;;;;;25.69;56.16;100834.13;5114715;27;20484;-84
2023/07/31 06:40:47;;;;;;;1.75;1.65;;;;;;;25.65;56.00;100840.41;5094320;28;19907;-83
2023/07/31 06:43:12;;;;;;;;;;;;;;;25.65;56.29;100835.94;5111980;28;20050;-84
2023/07/31 06:45:38;;;;;;;1.83;1.73;;;;;;;25.61;55.94;100826.16;5097726;27;20384;-84
2023/07/31 06:48:03;;;;;;;;;;;;;;;25.64;56.10;100841.31;5111956;27;20481;-84
2023/07/31 06:50:30;;;;;;;1.80;1.70;;;;;;;25.65;55.81;100840.41;5114000;27;19911;-85
2023/07/31 06:52:57;;;;;;;1.60;1.50;;;;;;;25.62;56.10;100830.59;5120707;27;20440;-86
2023/07/31 06:55:23;;;;;;;1.98;1.88;;;;;;;25.64;56.17;100841.31;5108450;27;20435;-86
2023/07/31 06:57:50;;;;;;;1.70;1.60;;;;;;;25.62;56.15;100835.97;5106559;27;20037;-83
2023/07/31 07:00:16;;;;;;;1.60;1.50;;;;;;;25.63;55.88;100831.50;5102614;27;20653;-83
2023/07/31 07:02:42;;;;;;;1.85;1.65;;;;;;;25.69;56.27;100831.44;5116306;27;20035;-85
2023/07/31 07:05:11;;;;;;;;;;;;;;;25.72;55.85;100839.47;5111679;27;20023;-85
2023/07/31 07:07:37;;;;;;;1.80;1.70;;;;;;;25.65;55.79;100835.94;5084021;28;20376;-84
2023/07/31 07:10:03;;;;;;;;;;;;;;;25.71;56.09;100840.34;5115925;27;20034;-84
2023/07/31 07:12:30;;;;;;;1.80;1.70;;;;;;;25.60;56.13;100830.63;5107735;27;20002;-84
2023/07/31 07:14:57;;;;;;;2.03;1.83;;;;;;;25.47;55.91;100804.88;5116827;27;20024;-85
2023/07/31 07:17:23;;;;;;;1.83;1.73;;;;;;;25.59;55.85;100834.19;5116068;27;20118;-83
2023/07/31 07:19:48;;;;;;;;;;;;;;;25.73;56.13;100847.47;5093489;28;20027;-84
2023/07/31 07:22:17;;;;;;;2.00;1.90;;;;;;;25.74;55.74;100848.38;5092738;28;19907;-84
2023/07/31 07:24:43;;;;;;;2.00;1.70;;;;;;;25.71;55.94;100843.03;5115016;27;20051;-83
2023/07/31 07:27:08;;;;;;;;;;;;;;;25.74;55.95;100845.69;5114579;28;20036;-83
2023/07/31 07:29:34;;;;;;;2.13;1.90;;;;;;;25.75;55.75;100851.00;5114228;27;19907;-84
2023/07/31 07:32:01;;;;;;;2.17;1.98;;;;;;;25.68;56.26;100841.28;5088347;28;20465;-85
2023/07/31 07:34:27;;;;;;;1.90;1.70;;;;;;;25.74;56.19;100851.06;5104429;28;20424;-84
2023/07/31 07:36:54;;;;;;;2.08;1.63;;;;;;;25.77;55.87;100843.88;5092794;28;20032;-84
2023/07/31 07:39:20;;;;;;;1.88;1.70;;;;;;;25.59;55.99;100815.47;5092540;28;20031;-84
2023/07/31 07:41:46;;;;;;;2.08;1.88;;;;;;;25.63;56.36;100823.47;5107345;27;20039;-84
2023/07/31 07:44:12;;;;;;;1.60;1.50;;;;;;;25.66;56.18;100831.50;5089982;28;20042;-83
2023/07/31 07:46:38;;;;;;;1.60;1.50;;;;;;;25.75;56.31;100839.44;5089718;28;20032;-84
2023/07/31 07:49:04;;;;;;;1.95;1.83;;;;;;;25.75;56.35;100842.09;5080789;28;20034;-82
2023/07/31 07:51:31;;;;;;;;;;;;;;;25.85;56.06;100859.00;5095954;28;20451;-83
2023/07/31 07:53:57;;;;;;;1.92;1.70;;;;;;;25.83;56.83;100855.44;5072700;28;19957;-83
2023/07/31 07:56:23;;;;;;;2.20;1.70;;;;;;;25.84;56.62;100855.41;5091744;28;20032;-84
2023/07/31 07:58:50;;;;;;;1.85;1.75;;;;;;;25.85;56.68;100851.84;5102396;28;20035;-83
2023/07/31 08:01:16;;;;;;;1.73;1.55;;;;;;;25.67;56.70;100826.09;5090829;28;20665;-82
2023/07/31 08:03:44;;;;;;;;;;;;;;;25.87;56.38;100850.03;5090571;28;20020;-83
2023/07/31 08:06:10;;;;;;;2.08;1.92;;;;;;;25.85;57.10;100867.91;5093774;28;19912;-85
2023/07/31 08:08:42;;;;;;;;;;;;;;;25.89;56.66;100860.78;5096832;28;20489;-87
2023/07/31 08:11:08;;;;;;;1.80;1.60;;;;;;;25.86;56.49;100858.06;5086670;28;20370;-86
2023/07/31 08:13:33;;;;;;;;;;;;;;;25.89;56.53;100858.97;5102045;28;20621;-86
2023/07/31 08:15:59;;;;;;;2.88;1.60;;;;;;;25.65;56.52;100824.34;5110732;28;19974;-86
2023/07/31 08:18:24;;;;;;;;;;;;;;;25.90;56.72;100857.19;5093712;28;20030;-86
2023/07/31 08:20:50;;;;;;;2.03;1.85;;;;;;;25.84;56.51;100851.84;5076958;28;20018;-85
2023/07/31 08:23:15;;;;;;;;;;;;;;;25.89;56.52;100858.09;5081279;28;20493;-86
2023/07/31 08:25:41;;;;;;;2.42;1.63;;;;;;;25.64;56.73;100822.59;5093909;28;20365;-87
2023/07/31 08:28:06;;;;;;;;;;;;;;;25.90;56.75;100858.06;5094113;28;20024;-87
2023/07/31 08:30:33;;;;;;;1.60;1.50;;;;;;;25.91;56.63;100858.97;5075141;28;19908;-86
2023/07/31 08:32:59;;;;;;;1.83;1.73;;;;;;;25.90;56.76;100868.78;5074410;28;20020;-86
2023/07/31 08:35:24;;;;;;;;;;;;;;;25.93;56.83;100857.16;5081368;28;20051;-86
2023/07/31 08:37:50;;;;;;;2.20;2.00;;;;;;;25.76;56.39;100841.19;5087946;28;20008;-87
2023/07/31 08:40:15;;;;;;;;;;;;;;;25.93;56.49;100858.06;5100441;28;20496;-85
2023/07/31 08:42:48;;;;;;;2.20;2.00;;;;;;;25.92;56.34;100864.28;5121932;27;19915;-86
2023/07/31 08:45:15;;;;;;;1.80;1.70;;;;;;;25.68;56.60;100824.34;5123336;27;20504;-86
2023/07/31 08:47:44;;;;;;;2.00;1.90;;;;;;;25.92;56.52;100852.72;5113335;28;20026;-87
2023/07/31 08:50:13;;;;;;;2.42;2.00;;;;;;;25.93;56.54;100860.75;5104818;27;20404;-86
2023/07/31 08:52:38;;;;;;;2.17;1.98;;;;;;;25.89;56.57;100856.31;5105492;28;20477;-85
2023/07/31 08:55:05;;;;;;;;;;;;;;;25.98;57.07;100866.94;5096343;28;20020;-88
2023/07/31 08:57:30;;;;;;;2.00;1.90;;;;;;;25.66;56.47;100810.09;5088937;28;19918;-86
2023/07/31 08:59:57;;;;;;;;;;;;;;;25.99;56.71;100867.81;5110562;27;20261;-89
2023/07/31 09:02:26;;;;;;;2.30;2.10;;;;;;;25.89;56.52;100845.59;5115831;27;20384;-87
2023/07/31 09:04:52;;;;;;;2.20;2.00;;;;;;;25.70;56.73;100810.06;5131326;27;20272;-88
2023/07/31 09:07:18;;;;;;;2.22;1.85;;;;;;;25.62;56.80;100806.53;5113012;27;20122;-87
2023/07/31 09:09:43;;;;;;;;;;;;;;;26.01;56.72;100860.66;5100410;27;20445;-85
2023/07/31 09:12:09;;;;;;;2.30;2.10;;;;;;;25.92;56.45;100839.34;5108192;28;19915;-87
2023/07/31 09:14:34;;;;;;;;;;;;;;;26.03;56.50;100858.84;5115131;27;20032;-86
2023/07/31 09:17:00;;;;;;;2.17;2.00;;;;;;;25.80;56.50;100825.13;5078673;28;19918;-87
2023/07/31 09:19:46;;;;;;;2.40;2.20;;;;;;;26.01;56.62;100857.97;5115079;27;20107;-85
2023/07/31 09:22:11;;;;;;;2.37;2.17;;;;;;;26.00;56.51;100853.53;5134466;27;20034;-86
2023/07/31 09:24:37;;;;;;;;;;;;;;;26.03;56.41;100861.53;5097261;28;20279;-86
2023/07/31 09:27:02;;;;;;;2.78;2.47;;;;;;;25.89;56.63;100828.69;5120948;27;19915;-86
2023/07/31 09:29:29;;;;;;;;;;;;;;;26.04;56.54;100860.66;5118134;27;20114;-86
2023/07/31 09:31:55;;;;;;;2.35;2.15;;;;;;;26.04;56.74;100867.78;5105331;27;19908;-85
2023/07/31 09:34:39;;;;;;;3.67;2.40;;;;;;;25.90;56.57;100849.16;5098062;27;20036;-85
2023/07/31 09:37:04;;;;;;;2.50;2.30;;;;;;;26.07;56.87;100870.44;5118934;27;20106;-85
2023/07/31 09:39:30;;;;;;;;;;;;;;;26.10;56.72;100883.78;5093293;27;20138;-84
2023/07/31 09:41:56;;;;;;;2.88;2.67;;;;;;;26.08;56.73;100877.59;5113631;27;19915;-87
2023/07/31 09:44:37;;;;;;;2.80;2.60;;;;;;;26.00;56.84;100867.81;5095313;28;20050;-86
2023/07/31 09:47:03;;;;;;;2.80;2.45;;;;;;;26.11;56.88;100874.88;5115901;27;20027;-86
2023/07/31 09:49:28;;;;;;;;;;;;;;;26.12;56.79;100876.63;5087528;28;20024;-87
2023/07/31 09:51:54;;;;;;;2.40;2.20;;;;;;;26.00;56.73;100856.22;5094241;28;19934;-87
2023/07/31 09:54:20;;;;;;;;;;;;;;;26.14;56.73;100889.13;5114221;27;20028;-93
2023/07/31 09:56:48;;;;;;;3.00;2.70;;;;;;;25.95;57.81;100858.03;5091189;28;19911;-87
2023/07/31 09:59:18;;;;;;;2.90;2.65;;;;;;;26.10;57.21;100903.44;5093760;27;20456;-88
2023/07/31 10:01:46;;;;;;;2.95;2.65;;;;;;;25.97;57.53;100874.97;5110986;27;20031;-87
2023/07/31 10:04:12;;;;;;;3.30;3.00;;;;;;;26.22;57.54;100905.09;5122005;27;20027;-85
2023/07/31 10:06:39;;;;;;;3.72;3.40;;;;;;;26.20;57.35;100933.66;5098646;27;20027;-87
2023/07/31 10:09:12;;;;;;;3.25;2.95;;;;;;;25.91;57.49;100881.28;5092955;28;20030;-86
2023/07/31 10:11:51;;;;;;;3.10;2.70;;;;;;;26.20;56.97;100931.00;5112179;27;20689;-89
2023/07/31 10:14:20;;;;;;;3.00;2.80;;;;;;;25.97;57.25;100891.00;5100654;27;20068;-89
2023/07/31 10:16:46;;;;;;;3.08;2.63;;;;;;;26.02;57.05;100897.25;5108862;27;20519;-86
2023/07/31 10:19:12;;;;;;;;;;;;;;;26.23;56.99;100933.66;5125639;27;20035;-87
2023/07/31 10:21:45;;;;;;;3.50;3.20;;;;;;;26.19;57.05;100914.03;5091810;28;19923;-88
2023/07/31 10:24:11;;;;;;;3.17;2.90;;;;;;;25.96;56.99;100876.75;5094120;28;20327;-85
2023/07/31 10:26:37;;;;;;;;;;;;;;;26.24;57.30;100903.28;5095466;28;20440;-88
2023/07/31 10:29:04;;;;;;;3.40;3.10;;;;;;;26.03;56.91;100872.25;5078475;28;20308;-88
2023/07/31 10:31:29;;;;;;;3.25;2.88;;;;;;;26.12;56.86;100888.25;5093131;28;20040;-85
2023/07/31 10:33:56;;;;;;;;;;;;;;;26.23;57.01;100906.88;5124298;27;20030;-85
2023/07/31 10:36:21;;;;;;;3.63;3.10;;;;;;;26.03;56.92;100871.34;5093655;28;19922;-87
2023/07/31 10:38:50;;;;;;;;;;;;;;;26.25;57.05;100896.19;5112950;27;20106;-87
2023/07/31 10:41:18;;;;;;;3.50;3.20;;;;;;;25.95;56.93;100839.28;5092822;28;20428;-88
2023/07/31 10:43:46;;;;;;;3.28;2.97;;;;;;;25.97;56.86;100838.41;5091036;28;20476;-88
2023/07/31 10:46:13;;;;;;;3.38;2.97;;;;;;;26.12;56.81;100863.25;5091179;28;20023;-88
2023/07/31 10:48:41;;;;;;;3.10;2.80;;;;;;;26.23;56.66;100881.91;5091280;28;20020;-88
2023/07/31 10:51:12;;;;;;;3.05;2.80;;;;;;;26.11;56.71;100864.16;5094220;28;20050;-88
2023/07/31 10:54:10;;;;;;;3.20;2.90;;;;;;;25.92;56.76;100833.97;5092240;28;20084;-89
2023/07/31 10:56:39;;;;;;;3.33;3.03;;;;;;;26.06;56.68;100853.50;5092830;28;20018;-87
2023/07/31 10:59:06;;;;;;;3.50;2.85;;;;;;;26.07;56.80;100852.56;5097932;28;20024;-86
2023/07/31 11:01:54;;;;;;;3.28;3.00;;;;;;;26.24;56.66;100872.97;5093392;28;20024;-88
2023/07/31 11:04:25;;;;;;;3.28;2.97;;;;;;;26.25;56.73;100867.59;5074335;28;20112;-86
2023/07/31 11:06:58;;;;;;;3.28;2.90;;;;;;;26.27;56.90;100867.56;5092854;28;20012;-86
2023/07/31 11:09:28;;;;;;;3.55;3.10;;;;;;;26.08;56.71;100837.44;5090499;28;20030;-88
2023/07/31 11:11:54;;;;;;;3.42;2.80;;;;;;;26.02;56.98;100830.34;5111538;28;20508;-89
2023/07/31 11:14:20;;;;;;;3.20;2.90;;;;;;;26.27;56.69;100865.81;5090863;28;20028;-88
2023/07/31 11:16:46;;;;;;;;;;;;;;;26.30;56.80;100867.56;5102253;28;20026;-88
2023/07/31 11:19:11;;;;;;;2.80;2.60;;;;;;;26.20;56.89;100853.34;5101734;28;19911;-87
2023/07/31 11:21:37;;;;;;;;;;;;;;;26.29;57.02;100869.34;5088008;28;20739;-87
2023/07/31 11:24:04;;;;;;;3.40;3.10;;;;;;;26.19;56.96;100855.16;5092869;28;19916;-87
2023/07/31 11:26:30;;;;;;;3.40;3.10;;;;;;;26.14;57.28;100848.06;5107566;28;20055;-86
2023/07/31 11:28:56;;;;;;;3.58;3.28;;;;;;;26.24;57.00;100868.50;5089574;28;20024;-86
2023/07/31 11:31:21;;;;;;;;;;;;;;;26.33;56.94;100879.13;5093083;28;20020;-85
2023/07/31 11:33:47;;;;;;;4.03;3.25;;;;;;;26.25;56.81;100858.69;5105134;28;20036;-86
2023/07/31 11:36:20;;;;;;;;;;;;;;;26.30;56.71;100879.16;5094135;28;20024;-88
2023/07/31 11:38:45;;;;;;;3.58;3.28;;;;;;;26.27;56.98;100875.59;5105281;28;19907;-89
2023/07/31 11:41:13;;;;;;;;;;;;;;;26.31;57.18;100878.25;5111711;27;20058;-88
2023/07/31 11:43:39;;;;;;;4.15;3.15;;;;;;;26.20;56.81;100864.06;5115089;28;19980;-88
2023/07/31 11:46:06;;;;;;;;;;;;;;;26.31;56.90;100878.25;5105071;27;20031;-89